createdAt,value
2023-02-04T00:00:23.332Z,4.82
2023-02-04T00:02:50.819Z,4.81
2023-02-04T00:05:18.458Z,4.83
2023-02-04T00:07:48.139Z,4.80
2023-02-04T00:10:14.817Z,4.76
2023-02-04T00:12:43.297Z,4.77
2023-02-04T00:15:10.768Z,4.76
2023-02-04T00:17:37.871Z,4.74
2023-02-04T00:20:04.703Z,4.75
2023-02-04T00:22:31.205Z,4.73
2023-02-04T00:24:57.653Z,4.70
2023-02-04T00:27:31.668Z,4.68
2023-02-04T00:29:58.321Z,4.70
2023-02-04T00:32:25.589Z,4.71
2023-02-04T00:34:53.840Z,4.71
2023-02-04T00:37:23.691Z,4.71
2023-02-04T00:39:50.580Z,4.67
2023-02-04T00:42:17.203Z,4.65
2023-02-04T00:44:46.833Z,4.63
2023-02-04T00:47:17.522Z,4.62
2023-02-04T00:49:46.506Z,4.61
2023-02-04T00:52:13.009Z,4.65
2023-02-04T00:54:39.486Z,4.61
2023-02-04T00:57:05.940Z,4.63
2023-02-04T00:59:32.453Z,4.62
2023-02-04T01:02:00.170Z,4.67
2023-02-04T01:04:30.215Z,4.62
2023-02-04T01:06:56.974Z,4.66
2023-02-04T01:09:23.511Z,4.63
2023-02-04T01:11:50.173Z,4.72
2023-02-04T01:14:16.733Z,4.57
2023-02-04T01:16:43.243Z,4.29
2023-02-04T01:19:09.795Z,4.11
2023-02-04T01:21:39.843Z,3.95
2023-02-04T01:24:07.396Z,3.86
2023-02-04T01:26:33.899Z,3.73
2023-02-04T01:29:00.465Z,3.67
2023-02-04T01:31:31.422Z,3.59
2023-02-04T01:33:59.080Z,3.52
2023-02-04T01:36:25.541Z,3.51
2023-02-04T01:38:52.052Z,3.40
2023-02-04T01:41:19.214Z,3.32
2023-02-04T01:43:47.043Z,3.28
2023-02-04T01:46:16.727Z,3.23
2023-02-04T01:48:49.977Z,3.19
2023-02-04T01:51:30.326Z,3.15
2023-02-04T01:53:58.815Z,3.10
2023-02-04T01:56:27.747Z,3.02
2023-02-04T01:58:55.864Z,3.08
2023-02-04T02:01:43.637Z,3.09
2023-02-04T02:04:12.946Z,3.10
2023-02-04T02:06:45.643Z,3.13
2023-02-04T02:09:18.618Z,3.06
2023-02-04T02:11:45.664Z,3.05
2023-02-04T02:14:12.617Z,3.02
2023-02-04T02:16:39.469Z,3.05
2023-02-04T02:19:13.282Z,3.00
2023-02-04T02:21:47.130Z,2.98
2023-02-04T02:24:24.300Z,2.97
2023-02-04T02:26:51.828Z,2.98
2023-02-04T02:29:18.527Z,3.04
2023-02-04T02:31:45.299Z,3.04
2023-02-04T02:34:14.926Z,3.07
2023-02-04T02:36:41.695Z,3.12
2023-02-04T02:39:11.029Z,3.19
2023-02-04T02:41:37.919Z,3.23
2023-02-04T02:44:04.604Z,3.15
2023-02-04T02:46:32.762Z,3.14
2023-02-04T02:49:02.904Z,3.12
2023-02-04T02:51:35.259Z,3.15
2023-02-04T02:54:05.344Z,3.29
2023-02-04T02:56:31.830Z,3.20
2023-02-04T02:59:15.864Z,3.19
2023-02-04T03:01:43.024Z,3.19
2023-02-04T03:04:11.362Z,3.07
2023-02-04T03:06:38.313Z,3.02
2023-02-04T03:09:04.959Z,3.01
2023-02-04T03:11:32.617Z,2.97
2023-02-04T03:14:03.993Z,2.98
2023-02-04T03:16:32.833Z,2.98
2023-02-04T03:19:00.807Z,2.94
2023-02-04T03:21:27.937Z,2.94
2023-02-04T03:23:56.775Z,2.97
2023-02-04T03:26:26.864Z,2.94
2023-02-04T03:28:54.502Z,2.97
2023-02-04T03:31:21.528Z,2.89
2023-02-04T03:33:48.124Z,2.81
2023-02-04T03:36:14.561Z,2.79
2023-02-04T03:38:41.361Z,2.80
2023-02-04T03:41:07.944Z,2.76
2023-02-04T03:43:34.590Z,2.76
2023-02-04T03:46:01.229Z,2.79
2023-02-04T03:48:27.688Z,2.84
2023-02-04T03:50:54.180Z,2.80
2023-02-04T03:53:22.100Z,2.77
2023-02-04T03:55:48.647Z,2.73
2023-02-04T03:58:15.234Z,2.71
2023-02-04T04:00:41.732Z,2.74
2023-02-04T04:03:08.307Z,2.71
2023-02-04T04:05:34.966Z,2.70
2023-02-04T04:08:01.647Z,2.71
2023-02-04T04:10:29.564Z,2.71
2023-02-04T04:12:56.327Z,2.70
2023-02-04T04:15:22.905Z,2.71
2023-02-04T04:17:49.360Z,2.73
2023-02-04T04:20:16.140Z,2.72
2023-02-04T04:22:42.747Z,2.74
2023-02-04T04:25:09.239Z,2.73
2023-02-04T04:27:35.735Z,2.72
2023-02-04T04:30:04.375Z,2.73
2023-02-04T04:32:30.858Z,2.76
2023-02-04T04:34:57.324Z,2.77
2023-02-04T04:37:23.846Z,2.72
2023-02-04T04:39:50.296Z,2.71
2023-02-04T04:42:16.810Z,2.72
2023-02-04T04:44:43.292Z,2.68
2023-02-04T04:47:09.742Z,2.67
2023-02-04T04:49:36.257Z,2.79
2023-02-04T04:52:02.788Z,2.80
2023-02-04T04:54:29.324Z,2.86
2023-02-04T04:56:55.769Z,2.76
2023-02-04T04:59:25.237Z,2.59
2023-02-04T05:01:51.719Z,2.58
2023-02-04T05:04:18.256Z,2.48
2023-02-04T05:06:45.121Z,2.47
2023-02-04T05:09:11.670Z,2.46
2023-02-04T05:11:38.152Z,2.55
2023-02-04T05:14:05.165Z,2.54
2023-02-04T05:16:31.666Z,2.55
2023-02-04T05:18:58.149Z,2.25
2023-02-04T05:21:24.639Z,2.08
2023-02-04T05:23:53.940Z,2.13
2023-02-04T05:26:29.858Z,2.22
2023-02-04T05:28:56.900Z,2.12
2023-02-04T05:31:23.511Z,2.18
2023-02-04T05:33:50.048Z,2.08
2023-02-04T05:36:17.885Z,2.16
2023-02-04T05:38:44.390Z,2.31
2023-02-04T05:41:10.880Z,2.34
2023-02-04T05:43:40.165Z,2.33
2023-02-04T05:46:06.738Z,2.31
2023-02-04T05:48:36.663Z,2.30
2023-02-04T05:51:03.207Z,2.30
2023-02-04T05:53:29.688Z,2.26
2023-02-04T05:55:56.144Z,2.21
2023-02-04T05:58:25.909Z,2.16
2023-02-04T06:00:52.347Z,2.13
2023-02-04T06:03:19.608Z,2.15
2023-02-04T06:05:49.083Z,2.22
2023-02-04T06:08:15.863Z,2.32
2023-02-04T06:10:42.373Z,2.32
2023-02-04T06:13:08.877Z,2.35
2023-02-04T06:15:35.335Z,2.29
2023-02-04T06:18:01.852Z,2.48
2023-02-04T06:20:28.347Z,2.53
2023-02-04T06:22:54.873Z,2.47
2023-02-04T06:25:22.153Z,2.52
2023-02-04T06:27:48.890Z,2.43
2023-02-04T06:30:16.478Z,2.49
2023-02-04T06:32:42.981Z,2.37
2023-02-04T06:35:10.373Z,2.31
2023-02-04T06:37:36.839Z,2.32
2023-02-04T06:40:03.422Z,2.37
2023-02-04T06:42:29.853Z,2.34
2023-02-04T06:44:56.324Z,2.25
2023-02-04T06:47:22.782Z,2.30
2023-02-04T06:49:49.302Z,2.41
2023-02-04T06:52:15.769Z,2.54
2023-02-04T06:54:42.377Z,2.68
2023-02-04T06:57:08.914Z,2.70
2023-02-04T06:59:39.718Z,2.50
2023-02-04T07:02:07.788Z,2.37
2023-02-04T07:04:35.327Z,2.36
2023-02-04T07:07:01.905Z,2.51
2023-02-04T07:09:28.553Z,2.55
2023-02-04T07:11:55.106Z,2.66
2023-02-04T07:14:21.683Z,2.56
2023-02-04T07:16:48.178Z,2.44
2023-02-04T07:19:15.004Z,2.51
2023-02-04T07:21:41.500Z,2.66
2023-02-04T07:24:07.959Z,2.72
2023-02-04T07:26:34.525Z,2.78
2023-02-04T07:29:00.990Z,2.79
2023-02-04T07:31:27.571Z,2.78
2023-02-04T07:33:54.285Z,2.56
2023-02-04T07:36:20.842Z,2.46
2023-02-04T07:38:47.325Z,2.38
2023-02-04T07:41:13.837Z,2.41
2023-02-04T07:43:40.646Z,2.60
2023-02-04T07:46:07.164Z,2.68
2023-02-04T07:48:33.673Z,2.71
2023-02-04T07:51:00.104Z,2.81
2023-02-04T07:53:29.463Z,2.82
2023-02-04T07:55:55.907Z,2.76
2023-02-04T07:58:23.107Z,2.64
2023-02-04T08:00:49.578Z,2.60
2023-02-04T08:03:16.147Z,2.57
2023-02-04T08:05:42.693Z,2.59
2023-02-04T08:08:09.210Z,2.70
2023-02-04T08:10:35.746Z,2.67
2023-02-04T08:13:02.200Z,2.72
2023-02-04T08:15:28.700Z,2.79
2023-02-04T08:17:55.200Z,2.77
2023-02-04T08:20:21.685Z,2.67
2023-02-04T08:22:51.128Z,2.62
2023-02-04T08:25:21.263Z,2.60
2023-02-04T08:27:47.842Z,2.61
2023-02-04T08:30:14.676Z,2.63
2023-02-04T08:32:41.175Z,2.59
2023-02-04T08:35:08.504Z,2.63
2023-02-04T08:37:35.499Z,2.54
2023-02-04T08:40:02.049Z,2.53
2023-02-04T08:42:29.184Z,2.57
2023-02-04T08:44:56.870Z,2.67
2023-02-04T08:47:23.368Z,2.70
2023-02-04T08:49:52.743Z,2.64
2023-02-04T08:52:19.302Z,2.66
2023-02-04T08:54:46.030Z,2.68
2023-02-04T08:57:16.052Z,2.72
2023-02-04T08:59:42.603Z,2.76
2023-02-04T09:02:10.356Z,2.76
2023-02-04T09:04:36.979Z,2.78
2023-02-04T09:07:03.563Z,2.75
2023-02-04T09:09:30.099Z,2.75
2023-02-04T09:11:56.593Z,2.77
2023-02-04T09:14:23.049Z,2.86
2023-02-04T09:16:49.568Z,2.83
2023-02-04T09:19:16.613Z,2.79
2023-02-04T09:21:43.151Z,2.90
2023-02-04T09:24:10.113Z,3.01
2023-02-04T09:26:36.635Z,2.97
2023-02-04T09:29:03.095Z,2.94
2023-02-04T09:31:29.701Z,3.02
2023-02-04T09:33:56.429Z,3.07
2023-02-04T09:36:23.208Z,3.13
2023-02-04T09:38:49.668Z,3.30
2023-02-04T09:41:16.241Z,3.43
2023-02-04T09:43:44.986Z,3.53
2023-02-04T09:46:28.466Z,3.58
2023-02-04T09:48:55.993Z,3.40
2023-02-04T09:51:28.872Z,3.29
2023-02-04T09:54:05.657Z,3.38
2023-02-04T09:56:32.546Z,3.46
2023-02-04T09:58:59.039Z,3.41
2023-02-04T10:01:28.127Z,3.67
2023-02-04T10:03:59.273Z,3.71
2023-02-04T10:06:26.022Z,3.87
2023-02-04T10:08:53.059Z,3.78
2023-02-04T10:11:21.262Z,3.72
2023-02-04T10:13:50.622Z,3.85
2023-02-04T10:16:21.490Z,3.97
2023-02-04T10:18:48.547Z,4.03
2023-02-04T10:21:22.521Z,3.90
2023-02-04T10:23:51.482Z,3.77
2023-02-04T10:26:28.504Z,3.72
2023-02-04T10:29:00.235Z,3.97
2023-02-04T10:31:38.442Z,4.20
2023-02-04T10:34:11.309Z,4.07
2023-02-04T10:36:38.844Z,3.97
2023-02-04T10:39:26.948Z,3.68
2023-02-04T10:41:55.426Z,3.60
2023-02-04T10:44:44.918Z,3.95
2023-02-04T10:47:20.583Z,4.24
2023-02-04T10:49:56.172Z,4.20
2023-02-04T10:52:30.474Z,4.36
2023-02-04T10:54:56.933Z,4.26
2023-02-04T10:57:27.029Z,4.48
2023-02-04T10:59:57.822Z,4.54
2023-02-04T11:02:33.025Z,4.54
2023-02-04T11:05:00.428Z,4.46
2023-02-04T11:07:27.066Z,4.44
2023-02-04T11:09:53.700Z,4.31
2023-02-04T11:12:37.655Z,4.10
2023-02-04T11:15:08.364Z,3.91
2023-02-04T11:17:35.396Z,3.76
2023-02-04T11:20:15.680Z,3.87
2023-02-04T11:22:45.518Z,4.26
2023-02-04T11:25:31.698Z,4.55
2023-02-04T11:27:58.443Z,4.37
2023-02-04T11:30:33.148Z,4.34
2023-02-04T11:33:06.016Z,4.62
2023-02-04T11:35:32.990Z,4.55
2023-02-04T11:37:59.737Z,4.38
2023-02-04T11:40:34.812Z,4.19
2023-02-04T11:43:14.754Z,4.23
2023-02-04T11:45:41.832Z,4.44
2023-02-04T11:48:21.433Z,4.29
2023-02-04T11:50:59.089Z,4.22
2023-02-04T11:53:33.046Z,4.28
2023-02-04T11:56:00.087Z,4.48
2023-02-04T11:58:30.880Z,4.73
2023-02-04T12:00:57.578Z,5.11
2023-02-04T12:03:34.306Z,4.95
2023-02-04T12:06:03.037Z,5.06
2023-02-04T12:08:35.301Z,5.16
2023-02-04T12:11:11.279Z,5.11
2023-02-04T12:13:53.103Z,5.12
2023-02-04T12:16:21.176Z,5.05
2023-02-04T12:18:48.009Z,5.00
2023-02-04T12:21:14.511Z,4.81
2023-02-04T12:23:44.257Z,4.73
2023-02-04T12:26:12.577Z,4.74
2023-02-04T12:28:39.068Z,4.78
2023-02-04T12:31:05.772Z,4.68
2023-02-04T12:33:35.026Z,4.58
2023-02-04T12:36:01.607Z,4.55
2023-02-04T12:38:28.205Z,4.61
2023-02-04T12:40:54.664Z,4.65
2023-02-04T12:43:21.172Z,4.46
2023-02-04T12:45:49.651Z,4.34
2023-02-04T12:48:16.358Z,4.21
2023-02-04T12:50:42.915Z,4.20
2023-02-04T12:53:09.796Z,4.23
2023-02-04T12:55:36.465Z,4.29
2023-02-04T12:58:03.197Z,4.24
2023-02-04T13:00:29.733Z,4.23
2023-02-04T13:02:58.969Z,4.13
2023-02-04T13:05:25.963Z,4.06
2023-02-04T13:07:52.466Z,4.00
2023-02-04T13:10:20.150Z,3.95
2023-02-04T13:12:46.704Z,3.92
2023-02-04T13:15:13.424Z,3.88
2023-02-04T13:17:39.901Z,3.83
2023-02-04T13:20:06.963Z,3.81
2023-02-04T13:22:33.426Z,3.78
2023-02-04T13:24:59.968Z,3.79
2023-02-04T13:27:29.070Z,3.77
2023-02-04T13:29:55.583Z,3.77
2023-02-04T13:32:22.157Z,3.79
2023-02-04T13:34:48.682Z,3.77
2023-02-04T13:37:15.141Z,3.74
2023-02-04T13:39:41.758Z,3.75
2023-02-04T13:42:08.287Z,3.82
2023-02-04T13:44:38.242Z,3.88
2023-02-04T13:47:04.738Z,3.94
2023-02-04T13:49:31.218Z,3.95
2023-02-04T13:51:57.674Z,3.96
2023-02-04T13:54:24.165Z,3.97
2023-02-04T13:56:50.682Z,3.98
2023-02-04T13:59:17.183Z,3.92
2023-02-04T14:01:43.989Z,3.94
2023-02-04T14:04:10.452Z,3.94
2023-02-04T14:06:43.636Z,4.04
2023-02-04T14:09:12.354Z,4.09
2023-02-04T14:11:39.151Z,4.17
2023-02-04T14:14:06.206Z,4.18
2023-02-04T14:16:32.779Z,4.16
2023-02-04T14:18:59.280Z,4.17
2023-02-04T14:21:26.016Z,4.13
2023-02-04T14:23:52.448Z,4.05
2023-02-04T14:26:18.948Z,4.01
2023-02-04T14:28:48.098Z,3.91
2023-02-04T14:31:14.691Z,3.89
2023-02-04T14:33:41.381Z,3.91
2023-02-04T14:36:07.948Z,3.93
2023-02-04T14:38:34.630Z,3.98
2023-02-04T14:41:01.139Z,3.97
2023-02-04T14:43:27.843Z,3.96
2023-02-04T14:45:54.321Z,3.98
2023-02-04T14:48:20.870Z,3.96
2023-02-04T14:50:47.373Z,3.96
2023-02-04T14:53:13.901Z,3.91
2023-02-04T14:55:40.385Z,3.91
2023-02-04T14:58:07.196Z,3.92
2023-02-04T15:00:34.043Z,3.90
2023-02-04T15:03:00.899Z,3.90
2023-02-04T15:05:27.368Z,3.88
2023-02-04T15:07:53.895Z,3.89
2023-02-04T15:10:21.265Z,3.87
2023-02-04T15:12:48.098Z,3.85
2023-02-04T15:15:14.852Z,3.80
2023-02-04T15:17:41.381Z,3.78
2023-02-04T15:20:08.616Z,3.74
2023-02-04T15:22:35.317Z,3.70
2023-02-04T15:25:01.843Z,3.63
2023-02-04T15:27:31.677Z,3.58
2023-02-04T15:29:58.216Z,3.53
2023-02-04T15:32:24.954Z,3.55
2023-02-04T15:34:51.649Z,3.56
2023-02-04T15:37:18.105Z,3.51
2023-02-04T15:39:44.660Z,3.49
2023-02-04T15:42:11.158Z,3.45
2023-02-04T15:44:37.950Z,3.43
2023-02-04T15:47:06.358Z,3.33
2023-02-04T15:49:36.277Z,3.31
2023-02-04T15:52:03.998Z,3.33
2023-02-04T15:54:31.729Z,3.22
2023-02-04T15:56:58.827Z,3.10
2023-02-04T15:59:25.294Z,2.96
2023-02-04T16:01:51.867Z,2.90
2023-02-04T16:04:20.652Z,2.93
2023-02-04T16:06:57.138Z,2.94
2023-02-04T16:09:25.264Z,3.01
2023-02-04T16:11:51.735Z,3.01
2023-02-04T16:14:18.196Z,2.87
2023-02-04T16:16:44.703Z,2.77
2023-02-04T16:19:11.382Z,2.85
2023-02-04T16:21:37.899Z,2.87
2023-02-04T16:24:07.667Z,2.84
2023-02-04T16:26:34.164Z,2.83
2023-02-04T16:29:00.661Z,2.73
2023-02-04T16:31:27.325Z,2.69
2023-02-04T16:33:53.853Z,2.63
2023-02-04T16:36:20.377Z,2.55
2023-02-04T16:38:46.898Z,2.49
2023-02-04T16:41:14.320Z,2.50
2023-02-04T16:43:40.988Z,2.52
2023-02-04T16:46:07.533Z,2.50
2023-02-04T16:48:36.379Z,2.45
2023-02-04T16:51:03.314Z,2.43
2023-02-04T16:53:29.815Z,2.37
2023-02-04T16:55:56.261Z,2.40
2023-02-04T16:58:23.034Z,2.31
2023-02-04T17:00:50.210Z,2.27
2023-02-04T17:03:16.747Z,2.28
2023-02-04T17:05:44.730Z,2.22
2023-02-04T17:08:13.461Z,2.10
2023-02-04T17:10:59.400Z,2.05
2023-02-04T17:13:25.980Z,2.09
2023-02-04T17:15:52.653Z,2.15
2023-02-04T17:18:19.220Z,2.21
2023-02-04T17:20:45.683Z,2.22
2023-02-04T17:23:12.120Z,2.23
2023-02-04T17:25:38.669Z,2.23
2023-02-04T17:28:05.317Z,2.21
2023-02-04T17:30:31.899Z,2.13
2023-02-04T17:32:58.659Z,2.17
2023-02-04T17:35:25.166Z,2.19
2023-02-04T17:37:52.971Z,2.21
2023-02-04T17:40:19.925Z,2.17
2023-02-04T17:42:49.900Z,2.07
2023-02-04T17:45:16.752Z,2.00
2023-02-04T17:47:43.279Z,1.96
2023-02-04T17:50:11.237Z,1.96
2023-02-04T17:52:38.407Z,1.93
2023-02-04T17:55:29.091Z,1.95
2023-02-04T17:57:58.378Z,1.99
2023-02-04T18:00:28.992Z,2.00
2023-02-04T18:02:55.899Z,2.04
2023-02-04T18:05:25.918Z,2.04
2023-02-04T18:07:54.825Z,2.01
2023-02-04T18:10:24.468Z,2.03
2023-02-04T18:12:51.004Z,2.00
2023-02-04T18:15:32.363Z,2.00
2023-02-04T18:18:14.789Z,1.98
2023-02-04T18:20:41.306Z,1.98
2023-02-04T18:23:18.026Z,1.96
2023-02-04T18:25:50.831Z,1.96
2023-02-04T18:28:23.567Z,1.95
2023-02-04T18:30:54.181Z,1.99
2023-02-04T18:33:26.911Z,1.98
2023-02-04T18:36:00.118Z,1.93
2023-02-04T18:38:34.367Z,1.91
2023-02-04T18:41:25.490Z,1.90
2023-02-04T18:44:02.455Z,1.91
2023-02-04T18:46:34.722Z,1.86
2023-02-04T18:49:05.782Z,1.89
2023-02-04T18:51:39.836Z,1.88
2023-02-04T18:54:29.898Z,1.85
2023-02-04T18:57:13.577Z,1.88
2023-02-04T18:59:41.230Z,1.89
2023-02-04T19:02:36.208Z,1.80
2023-02-04T19:05:25.703Z,1.69
2023-02-04T19:08:16.825Z,1.68
2023-02-04T19:10:43.410Z,1.66
2023-02-04T19:13:22.078Z,1.65
2023-02-04T19:16:13.560Z,1.63
2023-02-04T19:18:43.648Z,1.63
2023-02-04T19:21:21.113Z,1.58
2023-02-04T19:23:49.649Z,1.59
2023-02-04T19:26:40.452Z,1.57
2023-02-04T19:29:22.051Z,1.56
2023-02-04T19:31:49.704Z,1.54
2023-02-04T19:34:28.862Z,1.49
2023-02-04T19:36:55.666Z,1.53
2023-02-04T19:39:40.329Z,1.53
2023-02-04T19:42:36.986Z,1.42
2023-02-04T19:45:26.591Z,1.37
2023-02-04T19:47:55.518Z,1.38
2023-02-04T19:50:30.333Z,1.41
2023-02-04T19:53:01.010Z,1.39
2023-02-04T19:55:33.848Z,1.44
2023-02-04T19:58:11.895Z,1.37
2023-02-04T20:00:47.429Z,1.37
2023-02-04T20:03:35.843Z,1.36
2023-02-04T20:06:29.235Z,1.37
2023-02-04T20:09:03.860Z,1.38
2023-02-04T20:11:30.286Z,1.24
2023-02-04T20:14:19.933Z,1.00
2023-02-04T20:17:03.571Z,0.86
2023-02-04T20:19:30.026Z,0.83
2023-02-04T20:22:17.594Z,0.93
2023-02-04T20:24:47.351Z,1.05
2023-02-04T20:27:24.933Z,1.09
2023-02-04T20:30:11.643Z,1.13
2023-02-04T20:32:46.282Z,1.13
2023-02-04T20:35:12.698Z,1.08
2023-02-04T20:37:45.781Z,1.02
2023-02-04T20:40:47.790Z,1.05
2023-02-04T20:43:20.216Z,1.09
2023-02-04T20:45:50.730Z,1.07
2023-02-04T20:48:17.193Z,1.02
2023-02-04T20:50:54.447Z,1.06
2023-02-04T20:53:20.857Z,1.01
2023-02-04T20:56:03.422Z,0.97
2023-02-04T20:58:43.332Z,1.01
2023-02-04T21:01:24.766Z,1.03
2023-02-04T21:03:51.769Z,0.99
2023-02-04T21:06:26.018Z,0.94
2023-02-04T21:08:54.360Z,0.96
2023-02-04T21:11:22.265Z,1.00
2023-02-04T21:13:50.407Z,1.02
2023-02-04T21:16:17.001Z,0.99
2023-02-04T21:18:43.506Z,0.95
2023-02-04T21:21:15.941Z,0.99
2023-02-04T21:23:45.706Z,0.91
2023-02-04T21:26:12.163Z,0.84
2023-02-04T21:28:38.710Z,0.81
2023-02-04T21:31:05.546Z,0.82
2023-02-04T21:33:32.318Z,0.85
2023-02-04T21:35:58.761Z,0.79
2023-02-04T21:38:25.263Z,0.75
2023-02-04T21:40:51.742Z,0.78
2023-02-04T21:43:18.405Z,0.78
2023-02-04T21:45:44.961Z,0.79
2023-02-04T21:48:11.538Z,0.77
2023-02-04T21:50:40.879Z,0.72
2023-02-04T21:53:08.859Z,0.75
2023-02-04T21:55:36.449Z,0.66
2023-02-04T21:58:03.782Z,0.66
2023-02-04T22:00:30.645Z,0.71
2023-02-04T22:02:57.197Z,0.74
2023-02-04T22:05:24.143Z,0.76
2023-02-04T22:07:51.256Z,0.63
2023-02-04T22:10:21.083Z,0.51
2023-02-04T22:12:47.921Z,0.49
2023-02-04T22:15:14.964Z,0.53
2023-02-04T22:17:41.495Z,0.40
2023-02-04T22:20:08.589Z,0.37
2023-02-04T22:22:35.096Z,0.28
2023-02-04T22:25:01.660Z,0.29
2023-02-04T22:27:28.150Z,0.36
2023-02-04T22:29:54.620Z,0.23
2023-02-04T22:32:21.122Z,0.14
2023-02-04T22:34:47.604Z,0.11
2023-02-04T22:37:14.129Z,0.13
2023-02-04T22:39:45.574Z,0.13
2023-02-04T22:42:12.357Z,0.06
2023-02-04T22:44:38.928Z,0.05
2023-02-04T22:47:05.641Z,0.10
2023-02-04T22:49:35.866Z,0.12
2023-02-04T22:52:03.972Z,0.10
2023-02-04T22:54:30.866Z,0.05
2023-02-04T22:57:00.627Z,0.04
2023-02-04T22:59:27.860Z,-0.03
2023-02-04T23:01:57.708Z,-0.02
2023-02-04T23:04:24.207Z,0.09
2023-02-04T23:06:51.146Z,0.03
2023-02-04T23:09:21.355Z,0.08
2023-02-04T23:11:48.064Z,0.04
2023-02-04T23:14:14.522Z,-0.03
2023-02-04T23:16:41.138Z,-0.12
2023-02-04T23:19:07.662Z,-0.16
2023-02-04T23:21:34.311Z,-0.11
2023-02-04T23:24:00.852Z,-0.18
2023-02-04T23:26:27.357Z,-0.34
2023-02-04T23:28:58.204Z,-0.36
2023-02-04T23:31:25.273Z,-0.40
2023-02-04T23:33:51.763Z,-0.32
2023-02-04T23:36:18.270Z,-0.19
2023-02-04T23:38:44.821Z,-0.29
2023-02-04T23:41:11.340Z,-0.27
2023-02-04T23:43:37.837Z,-0.32
2023-02-04T23:46:10.159Z,-0.33
2023-02-04T23:48:43.153Z,-0.26
2023-02-04T23:51:12.236Z,-0.27
2023-02-04T23:53:38.756Z,-0.35
2023-02-04T23:56:13.715Z,-0.30
2023-02-04T23:58:40.201Z,-0.23
